Aérodrome :
LOGIN :

S'inscrire | Disclaimer

   EN    FR    IT 

 










Légende :    VFR   VFR Marginal   IFR   IFR Intensif   IFR Très Intensif
Visi : 
Plafond : 
>= 8 km
>= 3000ft
5 à 8 km
1000 à 3000 ft
1500m à 5 km
500 à 1000 ft
800 à 1500m
200 à 500 ft
< 800m
< 200 ft
Symboles :   Orages  Brouillard  Fortes neiges  Fortes précipitations  Vent > 20 kt
SIGMETs :   Divers  Orages  Givrage  Turbulence  Onde Orograph.  Cendres Volcan.







- Altitude de l'aérodrome : 220 ft
- Code IATA : CWL
- Voir les cartes d'approche


EGFF - Cardiff Rhoose

DERNIER METAR :
  • 180250Z AUTO 05008KT 9999 NCD 10/07 Q1029

METARs EXPIRÉS :
  • 180220Z AUTO 05009KT 9999 NCD 11/07 Q1028
  • 180150Z AUTO 05010KT 9999 NCD 11/07 Q1028
  • 180120Z AUTO 04010KT 9999 NCD 11/07 Q1028
  • 180050Z AUTO 05011KT 9999 NCD 11/08 Q1028
  • 180020Z AUTO 05010KT 9999 NCD 11/08 Q1028
  • 172350Z AUTO 05010KT 9999 NCD 12/08 Q1028

TAF TAF EGFF
Valide du 18 à 00h jusqu'au 19 à 00h UTC


172257Z 1800/1824 03008KT 9999 FEW030
PROB30 1803/1808 7000
ATIS : +44 1446 729 319
Pas de NOTAMs connus pour ce terrain.



MET'MAP, la Météo Aéronautique d'un coup d'oeil ! - Copyright ORBIFLY Décembre 2007 - Disclaimer

ORBIFLY MET'MAP TEAM :

Programmation & Développement : Alexandra Zaïnal
Conception & Développement : Baudouin d'Aumeries
Co-Programmation & Développement : Marc-Olivier Méhu
Soutien technique & logistique : Manuel Goepfert

Contact : metmap@orbifly.com




SOURCES & CREDITS :

   NOAA